Aeroporto :
LOGIN :

Iscrizione | Disclaimer

   EN    FR    IT 

 










Sommario :    VFR   VFR Marginale   IFR   IFR Intensivo   IFR Molto Intensivo
Visibilità : 
Base nubi : 
>= 8 km
>= 3000ft
5 / 8 km
1000 / 3000 ft
1500m / 5 km
500 / 1000 ft
800 / 1500m
200 / 500 ft
< 800m
< 200 ft
Simboli :   Temporali  Nebbia  Neve Forte  Precipitazioni Forti  Vento > 20 kt
SIGMETs :   Varie  Temporali  Ghiacco  Turbolenza  Onda orograficha  Ceneri Vulcaniche






- Altitudine del aeroporto : 287 ft


LFRL - Lanveoc Poulmic

ULTIMO METAR :
  • 271100Z AUTO 29010KT 2900 -DZ BR BKN004 OVC009 15/14 Q1011 BECMG 9999 NSW BKN012

METARs OBSOLETI :
  • 271030Z AUTO 30014KT 9999 SCT011 BKN016 BKN027 15/13 Q1011 BECMG BKN012
  • 271000Z AUTO 29018KT 9999 BKN024 BKN031 OVC062 16/12 Q1011 BECMG 31012G22KT BKN012
  • 270930Z AUTO 29015KT 9999 FEW026 BKN035 OVC042 16/12 Q1011 BECMG 31012G22KT BKN012
  • 270900Z AUTO 29015KT 9999 FEW024 BKN029 BKN036 16/12 Q1011 BECMG 31012G22KT
  • 270830Z AUTO 29013KT 9999 FEW027 SCT032 BKN043 16/12 Q1011 NOSIG
  • 270800Z AUTO 28012KT 9999 FEW025 SCT037 OVC044 15/11 Q1012 NOSIG

TAF TAF LFRL
Valido dal 27 a 06 ore il 28 a 06 ore UTC


270500Z 2706/2806 31010KT 9999 BKN040
BECMG 2708/2710 31012G22KT
BECMG 2711/2713 BKN012
TEMPO 2714/2718 2000 RADZ BR BKN002
BECMG 2717/2719 30018G32KT
TEMPO 2718/2806 3000 RADZ BR BKN005
BECMG 2803/2806 34010KT



MetMap, La meteo Aeronautica in un colpo d'occhio ! - Copyright ORBIFLY Dicembre 2007 - Disclaimer

ORBIFLY MET'MAP TEAM :

Programmazione e sviluppo : Alexandra Zaïnal
Concezione : Baudouin d'Aumeries
Supporto tecnico e logistico : Manuel Goepfert
Aiuto : Marc-Olivier Méhu
Aiuto per la traduzione : Arnaldo La Scala




FONTI E CREDITI :

   NOAA